Time;durP1;ratioP1;P1;durP2;ratioP2;P2;SDS_P1;SDS_P2;PMS_P1;PMS_P2;Temp;Humidity;BMP_temperature;BMP_pressure;BME280_temperature;BME280_humidity;BME280_pressure;Samples;Min_cycle;Max_cycle;Signal;HPM_P1;HPM_P2
2022/11/15 00:01:43;;;;;;;2.80;2.30;;;;;;;;;;5067601;28;20106;-41
2022/11/15 00:04:10;;;;;;;3.50;2.20;;;;;;;;;;5067305;28;20120;-42
2022/11/15 00:06:36;;;;;;;3.38;2.78;;;;;;;;;;5067490;28;20036;-42
2022/11/15 00:09:02;;;;;;;2.90;2.30;;;;;;;;;;5073268;28;20031;-41
2022/11/15 00:11:29;;;;;;;4.07;2.58;;;;;;;;;;5075451;28;20024;-41
2022/11/15 00:13:55;;;;;;;2.97;2.50;;;;;;;;;;5082138;28;20482;-41
2022/11/15 00:16:22;;;;;;;3.72;2.45;;;;;;;;;;5089737;28;20020;-41
2022/11/15 00:18:47;;;;;;;3.28;2.38;;;;;;;;;;5090247;28;20031;-41
2022/11/15 00:21:14;;;;;;;2.80;2.03;;;;;;;;;;5089685;28;20028;-41
2022/11/15 00:23:40;;;;;;;2.38;1.73;;;;;;;;;;5089566;28;20028;-41
2022/11/15 00:26:06;;;;;;;2.58;2.03;;;;;;;;;;5075277;28;20033;-41
2022/11/15 00:28:32;;;;;;;2.72;2.35;;;;;;;;;;5069468;28;20372;-41
2022/11/15 00:31:02;;;;;;;2.17;1.92;;;;;;;;;;5069378;28;20025;-41
2022/11/15 00:33:28;;;;;;;2.95;2.03;;;;;;;;;;5069163;28;20119;-41
2022/11/15 00:35:54;;;;;;;4.45;2.00;;;;;;;;;;5088570;28;20676;-41
2022/11/15 00:38:20;;;;;;;2.15;1.95;;;;;;;;;;5089068;28;20095;-41
2022/11/15 00:40:46;;;;;;;2.88;2.20;;;;;;;;;;5071025;28;20054;-41
2022/11/15 00:43:12;;;;;;;2.42;1.90;;;;;;;;;;5070299;28;20020;-41
2022/11/15 00:45:37;;;;;;;2.90;2.28;;;;;;;;;;5088565;28;20054;-41
2022/11/15 00:48:04;;;;;;;3.17;2.88;;;;;;;;;;5085939;28;20039;-41
2022/11/15 00:50:30;;;;;;;2.72;2.08;;;;;;;;;;5068203;28;20024;-41
2022/11/15 00:52:56;;;;;;;3.05;2.33;;;;;;;;;;5068153;28;20028;-41
2022/11/15 00:55:22;;;;;;;2.92;2.13;;;;;;;;;;5068261;28;20063;-41
2022/11/15 06:05:43;;;;;;;1.73;1.50;;;;;;;;;;5092284;28;20089;-41
2022/11/15 06:08:09;;;;;;;2.03;1.80;;;;;;;;;;5093250;28;20028;-42
2022/11/15 06:10:35;;;;;;;1.70;1.45;;;;;;;;;;5079193;28;20028;-41
2022/11/15 06:13:02;;;;;;;2.28;1.42;;;;;;;;;;5072233;28;20066;-41
2022/11/15 06:15:28;;;;;;;1.65;1.35;;;;;;;;;;5070067;28;20037;-41
2022/11/15 06:17:58;;;;;;;1.63;1.52;;;;;;;;;;5088781;28;20433;-41
2022/11/15 06:20:27;;;;;;;2.00;1.48;;;;;;;;;;5085828;28;20117;-42
2022/11/15 06:23:00;;;;;;;1.88;1.77;;;;;;;;;;5090634;28;20495;-42
2022/11/15 06:25:26;;;;;;;1.92;1.65;;;;;;;;;;5069154;28;20036;-41
2022/11/15 06:27:54;;;;;;;1.83;1.63;;;;;;;;;;5090542;28;20032;-41
2022/11/15 06:30:21;;;;;;;2.10;1.83;;;;;;;;;;5083972;28;20044;-41
2022/11/15 06:32:47;;;;;;;2.63;1.88;;;;;;;;;;5073452;28;20504;-41
2022/11/15 06:35:14;;;;;;;1.60;1.40;;;;;;;;;;5075243;28;20035;-41
2022/11/15 06:37:41;;;;;;;1.67;1.30;;;;;;;;;;5101823;28;20024;-41
2022/11/15 06:40:08;;;;;;;1.35;1.25;;;;;;;;;;5081355;28;20028;-42
2022/11/15 06:42:35;;;;;;;1.67;1.58;;;;;;;;;;5074789;28;20032;-42
2022/11/15 06:45:01;;;;;;;2.00;1.38;;;;;;;;;;5081432;28;20484;-42
2022/11/15 06:47:27;;;;;;;1.73;1.48;;;;;;;;;;5088150;28;20050;-42
2022/11/15 06:49:53;;;;;;;1.70;1.30;;;;;;;;;;5076013;28;21066;-42
2022/11/15 06:52:19;;;;;;;1.85;1.42;;;;;;;;;;5079371;28;20022;-42
2022/11/15 06:54:45;;;;;;;2.03;1.75;;;;;;;;;;5090506;28;20384;-41
2022/11/15 06:57:12;;;;;;;2.20;2.00;;;;;;;;;;5091836;28;20057;-42
2022/11/15 06:59:38;;;;;;;2.92;1.75;;;;;;;;;;5109607;28;20071;-41
2022/11/15 07:02:04;;;;;;;2.50;1.60;;;;;;;;;;5110356;28;20031;-41
2022/11/15 07:04:30;;;;;;;2.40;1.83;;;;;;;;;;5110370;28;20028;-41
2022/11/15 07:06:56;;;;;;;1.55;1.25;;;;;;;;;;5110276;28;20111;-41
2022/11/15 07:09:22;;;;;;;1.83;1.50;;;;;;;;;;5110084;28;20110;-41
2022/11/15 07:11:48;;;;;;;1.60;1.40;;;;;;;;;;5097960;28;20020;-42
2022/11/15 07:14:14;;;;;;;3.03;1.98;;;;;;;;;;5093413;28;20114;-41
2022/11/15 07:16:40;;;;;;;2.03;1.83;;;;;;;;;;5111507;28;20387;-41
2022/11/15 07:19:06;;;;;;;2.15;1.80;;;;;;;;;;5091693;28;20437;-41
2022/11/15 07:21:33;;;;;;;2.47;1.55;;;;;;;;;;5090612;28;20016;-42
2022/11/15 07:23:59;;;;;;;2.25;1.70;;;;;;;;;;5078418;28;20086;-41
2022/11/15 07:26:25;;;;;;;2.13;1.77;;;;;;;;;;5065719;28;20042;-41
2022/11/15 07:28:51;;;;;;;2.22;1.98;;;;;;;;;;5065513;28;20624;-41
2022/11/15 07:31:17;;;;;;;2.38;1.38;;;;;;;;;;5065057;28;20043;-41
2022/11/15 07:33:43;;;;;;;2.70;1.92;;;;;;;;;;5067182;28;20522;-41
2022/11/15 07:36:09;;;;;;;1.90;1.60;;;;;;;;;;5065781;28;20028;-41
2022/11/15 07:38:35;;;;;;;2.17;1.80;;;;;;;;;;5070524;28;20024;-41
2022/11/15 07:41:03;;;;;;;1.67;1.42;;;;;;;;;;5069096;28;20032;-41
2022/11/15 07:43:30;;;;;;;1.67;1.48;;;;;;;;;;5065608;28;20065;-41
2022/11/15 07:45:56;;;;;;;1.50;1.40;;;;;;;;;;5073965;28;20073;-41
2022/11/15 07:48:23;;;;;;;1.63;1.45;;;;;;;;;;5078513;28;20123;-41
2022/11/15 07:50:49;;;;;;;2.05;1.60;;;;;;;;;;5066952;28;20135;-41
2022/11/15 07:53:15;;;;;;;1.58;1.35;;;;;;;;;;5085415;28;20031;-41
2022/11/15 07:55:42;;;;;;;1.45;1.30;;;;;;;;;;5078674;28;20096;-41
2022/11/15 07:58:09;;;;;;;1.75;1.48;;;;;;;;;;5070557;28;20056;-42
2022/11/15 08:00:35;;;;;;;1.70;1.50;;;;;;;;;;5082385;28;20028;-41
2022/11/15 08:03:11;;;;;;;1.80;1.65;;;;;;;;;;5077416;28;20052;-41
2022/11/15 08:05:38;;;;;;;5.32;1.90;;;;;;;;;;5073733;28;20033;-41
2022/11/15 08:08:05;;;;;;;2.13;1.70;;;;;;;;;;5066071;28;20040;-41
2022/11/15 08:10:31;;;;;;;3.47;2.03;;;;;;;;;;5088286;28;20024;-42
2022/11/15 08:13:05;;;;;;;1.75;1.23;;;;;;;;;;5086296;28;20032;-41
2022/11/15 08:15:31;;;;;;;1.65;1.40;;;;;;;;;;5081483;28;20051;-42
2022/11/15 08:17:58;;;;;;;1.77;1.48;;;;;;;;;;5079669;28;20478;-41
2022/11/15 08:20:25;;;;;;;1.45;1.30;;;;;;;;;;5087043;28;20024;-41
2022/11/15 08:22:51;;;;;;;2.22;1.60;;;;;;;;;;5110295;28;20051;-41
2022/11/15 08:25:17;;;;;;;1.58;1.48;;;;;;;;;;5082064;28;20025;-41
2022/11/15 08:27:44;;;;;;;2.05;1.65;;;;;;;;;;5077219;28;20441;-41
2022/11/15 08:30:10;;;;;;;1.77;1.48;;;;;;;;;;5078819;28;20495;-41
2022/11/15 08:32:36;;;;;;;2.33;1.13;;;;;;;;;;5068823;28;20032;-41
2022/11/15 08:35:03;;;;;;;1.48;1.20;;;;;;;;;;5068883;28;20031;-41
2022/11/15 08:37:29;;;;;;;1.88;1.40;;;;;;;;;;5069333;28;20020;-41
2022/11/15 08:39:55;;;;;;;1.30;1.15;;;;;;;;;;5074909;28;20399;-41
2022/11/15 08:42:21;;;;;;;1.85;1.48;;;;;;;;;;5087535;28;20538;-41
2022/11/15 08:44:47;;;;;;;1.65;1.40;;;;;;;;;;5078110;28;20460;-41
2022/11/15 08:47:13;;;;;;;1.95;1.50;;;;;;;;;;5074541;28;20047;-41
2022/11/15 08:49:39;;;;;;;1.60;1.30;;;;;;;;;;5083436;28;20016;-41
2022/11/15 08:52:05;;;;;;;3.20;1.83;;;;;;;;;;5109988;28;20031;-41
2022/11/15 08:54:31;;;;;;;2.50;1.60;;;;;;;;;;5097538;28;20025;-41
2022/11/15 08:56:58;;;;;;;1.65;1.30;;;;;;;;;;5089318;28;20032;-41
2022/11/15 08:59:24;;;;;;;2.25;1.73;;;;;;;;;;5089587;28;20493;-41
2022/11/15 09:01:50;;;;;;;1.63;1.38;;;;;;;;;;5089441;28;20032;-41
2022/11/15 09:04:16;;;;;;;2.05;1.70;;;;;;;;;;5083681;28;20056;-41
2022/11/15 09:06:42;;;;;;;1.63;1.30;;;;;;;;;;5093602;28;20495;-41
2022/11/15 09:09:08;;;;;;;1.98;1.40;;;;;;;;;;5109252;28;20095;-42
2022/11/15 09:11:34;;;;;;;1.77;1.50;;;;;;;;;;5109723;28;20115;-41
2022/11/15 09:14:00;;;;;;;2.55;1.92;;;;;;;;;;5109654;28;20386;-41
2022/11/15 09:16:26;;;;;;;2.30;1.67;;;;;;;;;;5094827;28;20442;-41
2022/11/15 09:18:54;;;;;;;1.88;1.52;;;;;;;;;;5089069;28;20027;-42
2022/11/15 09:21:20;;;;;;;2.45;1.40;;;;;;;;;;5085229;28;20038;-41
2022/11/15 09:23:46;;;;;;;2.22;1.40;;;;;;;;;;5087413;28;20037;-42
2022/11/15 09:26:12;;;;;;;1.67;1.42;;;;;;;;;;5079990;28;20043;-41
2022/11/15 09:28:41;;;;;;;1.83;1.27;;;;;;;;;;5069711;28;20128;-41
2022/11/15 09:31:08;;;;;;;1.40;1.20;;;;;;;;;;5070841;28;20029;-42
2022/11/15 09:33:34;;;;;;;1.23;1.10;;;;;;;;;;5076297;28;20036;-41
2022/11/15 09:36:07;;;;;;;2.65;1.15;;;;;;;;;;5071126;28;20032;-41
2022/11/15 09:38:34;;;;;;;1.55;1.15;;;;;;;;;;5079197;28;20024;-41
2022/11/15 09:41:15;;;;;;;1.35;1.10;;;;;;;;;;5089177;28;20047;-42
2022/11/15 09:43:59;;;;;;;2.38;1.00;;;;;;;;;;5086724;28;20024;-41
2022/11/15 09:46:32;;;;;;;1.08;0.98;;;;;;;;;;5072131;28;20060;-41
2022/11/15 09:49:00;;;;;;;1.70;1.40;;;;;;;;;;5088628;28;20024;-41
2022/11/15 09:51:29;;;;;;;1.50;1.40;;;;;;;;;;5083883;28;20085;-43
2022/11/15 09:53:58;;;;;;;2.38;1.60;;;;;;;;;;5072067;28;20035;-41
2022/11/15 09:56:29;;;;;;;1.70;1.50;;;;;;;;;;5072309;28;20082;-41
2022/11/15 09:59:18;;;;;;;1.85;1.48;;;;;;;;;;5075231;28;20055;-42
2022/11/15 10:02:00;;;;;;;1.60;1.33;;;;;;;;;;5043194;28;20028;-42
2022/11/15 10:04:27;;;;;;;1.95;1.45;;;;;;;;;;5089853;28;20028;-42
2022/11/15 10:07:22;;;;;;;1.30;1.15;;;;;;;;;;5090369;28;20453;-41
2022/11/15 10:09:52;;;;;;;1.95;1.50;;;;;;;;;;5058632;28;20087;-42
2022/11/15 10:12:18;;;;;;;1.40;1.30;;;;;;;;;;5090733;28;20024;-42
2022/11/15 10:14:45;;;;;;;1.90;1.55;;;;;;;;;;5091984;28;20420;-41
2022/11/15 10:17:29;;;;;;;1.70;1.30;;;;;;;;;;5091637;28;20031;-42
2022/11/15 10:19:55;;;;;;;2.42;1.52;;;;;;;;;;5085244;28;20106;-41
2022/11/15 10:22:41;;;;;;;1.52;1.38;;;;;;;;;;5091405;28;20039;-42
2022/11/15 10:25:11;;;;;;;1.83;1.52;;;;;;;;;;5091801;28;20538;-41
2022/11/15 10:27:37;;;;;;;1.58;1.20;;;;;;;;;;5091704;28;20024;-41
2022/11/15 10:30:04;;;;;;;1.50;1.20;;;;;;;;;;5091536;28;20028;-41
2022/11/15 10:32:33;;;;;;;1.45;1.30;;;;;;;;;;5082001;28;20037;-41
2022/11/15 10:34:59;;;;;;;1.42;1.25;;;;;;;;;;5073103;28;20082;-41
2022/11/15 10:37:30;;;;;;;1.42;1.20;;;;;;;;;;5070733;28;20048;-42
2022/11/15 10:40:14;;;;;;;1.23;1.13;;;;;;;;;;5076914;28;20526;-41
2022/11/15 10:42:40;;;;;;;;;;;;;;;;;;5112451;28;20035;-41
2022/11/15 10:45:29;;;;;;;1.27;1.10;;;;;;;;;;5101597;28;19904;-41
2022/11/15 10:48:15;;;;;;;2.78;0.95;;;;;;;;;;5091169;28;20040;-41
2022/11/15 10:50:43;;;;;;;1.27;0.90;;;;;;;;;;5091061;28;20028;-41
2022/11/15 10:53:16;;;;;;;0.98;0.88;;;;;;;;;;5091213;28;20099;-42
2022/11/15 10:55:46;;;;;;;1.17;1.08;;;;;;;;;;5091634;28;20113;-41
2022/11/15 10:58:30;;;;;;;1.65;1.20;;;;;;;;;;5089189;28;20020;-42
2022/11/15 11:01:08;;;;;;;1.40;1.00;;;;;;;;;;5088617;28;20028;-41
2022/11/15 11:03:35;;;;;;;1.13;0.98;;;;;;;;;;5088505;28;20031;-41
2022/11/15 11:06:07;;;;;;;1.00;0.90;;;;;;;;;;5101278;28;20122;-41
2022/11/15 11:08:34;;;;;;;1.52;0.98;;;;;;;;;;5111514;28;20491;-41
2022/11/15 11:11:00;;;;;;;1.00;0.88;;;;;;;;;;5111157;28;20028;-41
2022/11/15 11:13:28;;;;;;;0.80;0.80;;;;;;;;;;5111256;28;20047;-41
2022/11/15 11:16:12;;;;;;;1.05;0.80;;;;;;;;;;5111145;28;20124;-42
2022/11/15 11:18:57;;;;;;;0.77;0.77;;;;;;;;;;5111192;28;20404;-41
2022/11/15 11:21:29;;;;;;;0.70;0.70;;;;;;;;;;5111111;28;20102;-41
2022/11/15 11:24:09;;;;;;;1.83;0.73;;;;;;;;;;5111025;28;20035;-41
2022/11/15 11:26:40;;;;;;;0.95;0.90;;;;;;;;;;5111164;28;20036;-41
2022/11/15 11:29:06;;;;;;;0.80;0.80;;;;;;;;;;5110870;28;20080;-41
2022/11/15 11:31:38;;;;;;;1.05;0.90;;;;;;;;;;5079933;28;20484;-41
2022/11/15 11:34:16;;;;;;;0.63;0.63;;;;;;;;;;5083293;28;20104;-42
2022/11/15 11:37:00;;;;;;;0.77;0.77;;;;;;;;;;5082977;28;20104;-41
2022/11/15 11:39:37;;;;;;;0.80;0.80;;;;;;;;;;5069213;28;20024;-41
2022/11/15 11:42:03;;;;;;;0.60;0.60;;;;;;;;;;5069388;28;20029;-41
2022/11/15 11:44:35;;;;;;;0.70;0.70;;;;;;;;;;5069868;28;20024;-42
2022/11/15 11:47:09;;;;;;;0.75;0.75;;;;;;;;;;5068963;28;20064;-41
2022/11/15 11:49:48;;;;;;;1.00;0.85;;;;;;;;;;5071927;28;20064;-41
2022/11/15 11:52:29;;;;;;;0.80;0.80;;;;;;;;;;5089391;28;20028;-41
2022/11/15 11:55:15;;;;;;;1.10;1.00;;;;;;;;;;5090523;28;20062;-42
2022/11/15 11:57:42;;;;;;;1.25;1.05;;;;;;;;;;5109502;28;20026;-41
2022/11/15 12:00:11;;;;;;;3.08;1.00;;;;;;;;;;5109437;28;20643;-41
2022/11/15 12:02:39;;;;;;;1.77;1.27;;;;;;;;;;5093312;28;20110;-41
2022/11/15 12:05:12;;;;;;;0.77;0.77;;;;;;;;;;5086767;28;20624;-42
2022/11/15 12:07:39;;;;;;;1.15;0.90;;;;;;;;;;5072139;28;20106;-41
2022/11/15 12:10:08;;;;;;;1.00;0.90;;;;;;;;;;5071786;28;20039;-41
2022/11/15 12:12:53;;;;;;;0.70;0.70;;;;;;;;;;5087563;28;20024;-41
2022/11/15 12:15:22;;;;;;;1.30;1.05;;;;;;;;;;5072182;28;20563;-43
2022/11/15 12:17:48;;;;;;;1.20;1.10;;;;;;;;;;5068933;28;20024;-41
2022/11/15 12:20:18;;;;;;;1.13;0.88;;;;;;;;;;5075874;28;20024;-41
2022/11/15 12:23:03;;;;;;;0.70;0.70;;;;;;;;;;5086761;28;20032;-42
2022/11/15 12:25:37;;;;;;;1.52;0.73;;;;;;;;;;5078233;28;20035;-41
2022/11/15 12:28:17;;;;;;;0.70;0.70;;;;;;;;;;5077421;28;20028;-42
2022/11/15 12:30:56;;;;;;;1.05;0.80;;;;;;;;;;5084365;28;20020;-42
2022/11/15 12:33:30;;;;;;;1.00;0.88;;;;;;;;;;5077175;28;20063;-41
2022/11/15 12:36:01;;;;;;;0.55;0.50;;;;;;;;;;5066589;28;20040;-41
2022/11/15 12:38:45;;;;;;;0.60;0.60;;;;;;;;;;5066523;28;20112;-41
2022/11/15 12:41:13;;;;;;;0.68;0.68;;;;;;;;;;5066904;28;20021;-41
2022/11/15 12:43:40;;;;;;;0.60;0.60;;;;;;;;;;5066517;28;20025;-41
2022/11/15 12:46:11;;;;;;;0.82;0.82;;;;;;;;;;5067762;28;20688;-41
2022/11/15 12:48:37;;;;;;;2.25;0.90;;;;;;;;;;5066524;28;20043;-41
2022/11/15 12:51:04;;;;;;;1.17;0.93;;;;;;;;;;5066386;28;20052;-41
2022/11/15 12:53:31;;;;;;;1.20;0.90;;;;;;;;;;5066376;28;20519;-41
2022/11/15 12:56:12;;;;;;;1.08;0.98;;;;;;;;;;5066786;28;20051;-41
2022/11/15 12:58:43;;;;;;;0.80;0.80;;;;;;;;;;5065836;28;20044;-41
2022/11/15 13:01:10;;;;;;;0.90;0.80;;;;;;;;;;5063993;28;20024;-41
2022/11/15 13:03:57;;;;;;;0.85;0.85;;;;;;;;;;5084992;28;20036;-41
2022/11/15 13:06:39;;;;;;;1.77;0.88;;;;;;;;;;5085870;28;20031;-42
2022/11/15 13:09:25;;;;;;;0.75;0.75;;;;;;;;;;5085025;28;20032;-41
2022/11/15 13:11:51;;;;;;;1.10;1.00;;;;;;;;;;5084849;28;20423;-42
2022/11/15 13:14:35;;;;;;;2.08;1.23;;;;;;;;;;5065137;28;20027;-41
2022/11/15 13:17:02;;;;;;;1.75;1.40;;;;;;;;;;5067438;28;20829;-41
2022/11/15 13:19:28;;;;;;;1.55;1.27;;;;;;;;;;5068810;28;20029;-41
2022/11/15 13:24:39;;;;;;;2.50;1.73;;;;;;;;;;5068943;28;20039;-41
2022/11/15 13:27:18;;;;;;;1.77;1.48;;;;;;;;;;5069810;28;20240;-41
2022/11/15 13:29:44;;;;;;;1.45;1.20;;;;;;;;;;5078161;28;20020;-41
2022/11/15 13:32:14;;;;;;;1.30;1.20;;;;;;;;;;5090762;28;20050;-42
2022/11/15 13:34:46;;;;;;;1.00;0.90;;;;;;;;;;5110407;28;20074;-41
2022/11/15 13:37:21;;;;;;;0.93;0.80;;;;;;;;;;5087397;28;20086;-41
2022/11/15 13:39:48;;;;;;;1.00;0.90;;;;;;;;;;5089941;28;20078;-41
2022/11/15 13:42:19;;;;;;;1.05;0.95;;;;;;;;;;5090074;28;20107;-41
2022/11/15 13:44:59;;;;;;;0.98;0.88;;;;;;;;;;5089617;28;20099;-41
2022/11/15 13:47:28;;;;;;;1.25;0.70;;;;;;;;;;5088822;28;20546;-41
2022/11/15 13:49:57;;;;;;;0.82;0.82;;;;;;;;;;5093740;28;20024;-41
2022/11/15 13:52:26;;;;;;;0.98;0.85;;;;;;;;;;5090791;28;20024;-41
2022/11/15 13:55:09;;;;;;;1.13;1.00;;;;;;;;;;5084980;28;20107;-41
2022/11/15 13:57:46;;;;;;;0.73;0.73;;;;;;;;;;5096471;28;20059;-41
2022/11/15 14:00:24;;;;;;;0.85;0.85;;;;;;;;;;5075639;28;20033;-41
2022/11/15 14:02:50;;;;;;;1.15;0.70;;;;;;;;;;5069435;28;20108;-41
2022/11/15 14:05:18;;;;;;;0.80;0.70;;;;;;;;;;5073478;28;20403;-42
2022/11/15 14:08:04;;;;;;;0.82;0.80;;;;;;;;;;5089320;28;20115;-42
2022/11/15 14:10:34;;;;;;;0.60;0.60;;;;;;;;;;5089486;28;20103;-41
2022/11/15 14:13:02;;;;;;;0.65;0.60;;;;;;;;;;5086736;28;20032;-41
2022/11/15 14:15:28;;;;;;;0.50;0.50;;;;;;;;;;5087316;28;20020;-41
2022/11/15 14:17:54;;;;;;;0.60;0.60;;;;;;;;;;5089381;28;20020;-41
2022/11/15 14:20:30;;;;;;;0.65;0.60;;;;;;;;;;5089300;28;20056;-41
2022/11/15 14:22:57;;;;;;;0.70;0.70;;;;;;;;;;5089041;28;20027;-42
2022/11/15 14:25:28;;;;;;;0.98;0.75;;;;;;;;;;5083840;28;20038;-41
2022/11/15 14:28:17;;;;;;;1.17;0.93;;;;;;;;;;5086619;28;20024;-41
2022/11/15 14:30:46;;;;;;;1.38;0.82;;;;;;;;;;5075651;28;20537;-41
2022/11/15 14:33:24;;;;;;;0.70;0.70;;;;;;;;;;5088957;28;20024;-41
2022/11/15 14:35:51;;;;;;;0.80;0.70;;;;;;;;;;5089184;28;20675;-41
2022/11/15 14:38:17;;;;;;;0.70;0.70;;;;;;;;;;5080339;28;20389;-41
2022/11/15 14:40:43;;;;;;;0.95;0.80;;;;;;;;;;5070078;28;20107;-41
2022/11/15 14:43:12;;;;;;;1.00;0.90;;;;;;;;;;5073079;28;20039;-41
2022/11/15 14:45:38;;;;;;;1.17;0.90;;;;;;;;;;5070419;28;20039;-40
2022/11/15 14:48:05;;;;;;;1.38;0.90;;;;;;;;;;5068484;28;20491;-40
2022/11/15 14:50:32;;;;;;;0.95;0.85;;;;;;;;;;5068327;28;20428;-40
2022/11/15 14:52:58;;;;;;;0.80;0.80;;;;;;;;;;5068373;28;20032;-40
2022/11/15 14:55:26;;;;;;;1.63;0.70;;;;;;;;;;5068025;28;20488;-40
2022/11/15 14:57:52;;;;;;;0.73;0.73;;;;;;;;;;5067204;28;20543;-40
2022/11/15 15:00:19;;;;;;;0.73;0.73;;;;;;;;;;5066373;28;20032;-40
2022/11/15 15:02:46;;;;;;;0.70;0.70;;;;;;;;;;5066772;28;20104;-40
2022/11/15 15:05:18;;;;;;;0.80;0.63;;;;;;;;;;5066815;28;20028;-40
2022/11/15 15:07:44;;;;;;;0.70;0.70;;;;;;;;;;5066913;28;20035;-40
2022/11/15 15:10:10;;;;;;;1.10;0.80;;;;;;;;;;5067037;28;20119;-40
2022/11/15 15:12:37;;;;;;;0.73;0.73;;;;;;;;;;5066756;28;20107;-40
2022/11/15 15:15:03;;;;;;;0.82;0.80;;;;;;;;;;5066793;28;20021;-40
2022/11/15 15:17:29;;;;;;;0.63;0.63;;;;;;;;;;5066943;28;20381;-40
2022/11/15 15:19:55;;;;;;;0.70;0.70;;;;;;;;;;5080807;28;20070;-40
2022/11/15 15:22:22;;;;;;;1.17;0.85;;;;;;;;;;5102559;28;20028;-40
2022/11/15 15:24:48;;;;;;;0.82;0.82;;;;;;;;;;5086741;28;20465;-40
2022/11/15 15:27:14;;;;;;;1.00;0.88;;;;;;;;;;5086337;28;20407;-40
2022/11/15 15:29:41;;;;;;;1.00;0.90;;;;;;;;;;5086547;28;20031;-40
2022/11/15 15:32:07;;;;;;;1.02;0.75;;;;;;;;;;5087227;28;20487;-40
2022/11/15 15:34:33;;;;;;;1.05;0.85;;;;;;;;;;5081334;28;20415;-41
2022/11/15 15:37:18;;;;;;;2.03;0.98;;;;;;;;;;5086410;28;20069;-40
2022/11/15 15:39:45;;;;;;;0.80;0.80;;;;;;;;;;5086600;28;20618;-40
2022/11/15 15:42:11;;;;;;;1.25;0.90;;;;;;;;;;5087170;28;20484;-40
2022/11/15 15:44:37;;;;;;;0.70;0.70;;;;;;;;;;5071303;28;20028;-40
2022/11/15 15:47:07;;;;;;;0.90;0.80;;;;;;;;;;5067049;28;20721;-40
2022/11/15 15:49:34;;;;;;;0.73;0.73;;;;;;;;;;5082559;28;20032;-40
2022/11/15 15:52:00;;;;;;;1.05;0.80;;;;;;;;;;5085868;28;20550;-40
2022/11/15 15:54:26;;;;;;;0.80;0.80;;;;;;;;;;5083533;28;20020;-40
2022/11/15 15:56:52;;;;;;;1.05;0.70;;;;;;;;;;5082475;28;20035;-40
2022/11/15 15:59:18;;;;;;;0.90;0.90;;;;;;;;;;5085833;28;20508;-40
2022/11/15 16:01:44;;;;;;;1.70;0.90;;;;;;;;;;5084879;28;20091;-40
2022/11/15 16:04:10;;;;;;;0.88;0.88;;;;;;;;;;5084725;28;20024;-40
2022/11/15 16:06:39;;;;;;;1.45;0.90;;;;;;;;;;5083089;28;20038;-40
2022/11/15 16:09:05;;;;;;;1.02;0.90;;;;;;;;;;5086332;28;20614;-40
2022/11/15 16:11:31;;;;;;;0.80;0.80;;;;;;;;;;5081167;28;20024;-40
2022/11/15 16:13:57;;;;;;;0.80;0.80;;;;;;;;;;5085450;28;20020;-40
2022/11/15 16:16:23;;;;;;;1.00;0.95;;;;;;;;;;5086019;28;20032;-40
2022/11/15 16:18:50;;;;;;;0.95;0.90;;;;;;;;;;5085654;28;20024;-40
2022/11/15 16:21:16;;;;;;;1.02;0.90;;;;;;;;;;5082517;28;20735;-40
2022/11/15 16:23:42;;;;;;;1.00;0.90;;;;;;;;;;5082890;28;20027;-40
2022/11/15 16:26:22;;;;;;;0.93;0.80;;;;;;;;;;5085671;28;20828;-40
2022/11/15 16:28:48;;;;;;;0.98;0.73;;;;;;;;;;5084897;28;20027;-41
2022/11/15 16:31:16;;;;;;;0.95;0.85;;;;;;;;;;5085431;28;20085;-40
2022/11/15 16:33:42;;;;;;;0.90;0.85;;;;;;;;;;5085754;28;20610;-40
2022/11/15 16:36:19;;;;;;;0.80;0.80;;;;;;;;;;5081068;28;20028;-40
2022/11/15 16:38:45;;;;;;;1.00;0.90;;;;;;;;;;5084232;28;20035;-40
2022/11/15 16:41:11;;;;;;;1.10;1.00;;;;;;;;;;5078758;28;20435;-40
2022/11/15 16:43:37;;;;;;;1.58;0.93;;;;;;;;;;5077133;28;20032;-40
2022/11/15 16:46:13;;;;;;;1.08;0.98;;;;;;;;;;5085715;28;20024;-40
2022/11/15 16:48:39;;;;;;;1.40;1.13;;;;;;;;;;5085375;28;20046;-40
2022/11/15 16:51:05;;;;;;;1.55;1.10;;;;;;;;;;5088322;28;20531;-40
2022/11/15 16:53:31;;;;;;;0.93;0.93;;;;;;;;;;5087747;28;20020;-40
2022/11/15 16:55:57;;;;;;;0.70;0.70;;;;;;;;;;5089694;28;20032;-40
2022/11/15 16:58:24;;;;;;;0.95;0.95;;;;;;;;;;5089309;28;20020;-40
2022/11/15 17:00:51;;;;;;;1.63;1.52;;;;;;;;;;5089999;28;20016;-40
2022/11/15 17:03:18;;;;;;;2.13;1.63;;;;;;;;;;5088789;28;20485;-40
2022/11/15 17:05:43;;;;;;;1.95;1.60;;;;;;;;;;5088895;28;20054;-40
2022/11/15 17:08:10;;;;;;;1.42;1.30;;;;;;;;;;5085092;28;20020;-40
2022/11/15 17:10:39;;;;;;;1.50;1.40;;;;;;;;;;5089049;28;20398;-40
2022/11/15 17:13:05;;;;;;;1.70;1.40;;;;;;;;;;5086262;28;20036;-40
2022/11/15 17:15:31;;;;;;;1.17;1.08;;;;;;;;;;5087595;28;20099;-40
2022/11/15 17:17:57;;;;;;;1.80;1.48;;;;;;;;;;5085915;28;20499;-40
2022/11/15 17:20:24;;;;;;;1.42;1.30;;;;;;;;;;5089068;28;20050;-40
2022/11/15 17:22:51;;;;;;;1.42;1.02;;;;;;;;;;5089456;28;20020;-40
2022/11/15 17:25:17;;;;;;;1.55;1.42;;;;;;;;;;5085398;28;20031;-40
2022/11/15 17:27:43;;;;;;;1.25;1.15;;;;;;;;;;5089053;28;20040;-40
2022/11/15 17:30:11;;;;;;;1.52;1.40;;;;;;;;;;5088705;28;20035;-40
2022/11/15 17:32:37;;;;;;;1.33;1.23;;;;;;;;;;5083641;28;20024;-40
2022/11/15 17:35:05;;;;;;;1.17;1.05;;;;;;;;;;5090313;28;20024;-40
2022/11/15 17:37:32;;;;;;;1.48;1.38;;;;;;;;;;5088629;28;20020;-41
2022/11/15 17:39:58;;;;;;;1.98;1.25;;;;;;;;;;5080279;28;20043;-41
2022/11/15 17:42:24;;;;;;;1.27;1.17;;;;;;;;;;5083316;28;20028;-41
2022/11/15 17:44:50;;;;;;;1.30;1.20;;;;;;;;;;5090729;28;20063;-41
2022/11/15 17:47:16;;;;;;;2.33;1.52;;;;;;;;;;5084052;28;20502;-41
2022/11/15 17:49:42;;;;;;;1.60;1.50;;;;;;;;;;5073968;28;20120;-41
2022/11/15 17:52:08;;;;;;;3.20;1.77;;;;;;;;;;5083964;28;20017;-42
2022/11/15 17:54:34;;;;;;;3.35;2.10;;;;;;;;;;5076259;28;20039;-41
2022/11/15 17:57:00;;;;;;;3.78;2.30;;;;;;;;;;5074196;28;20017;-41
2022/11/15 17:59:26;;;;;;;4.07;2.63;;;;;;;;;;5084757;28;20078;-41
2022/11/15 18:01:55;;;;;;;4.47;2.72;;;;;;;;;;5071804;28;20031;-41
2022/11/15 18:04:26;;;;;;;3.13;2.30;;;;;;;;;;5080259;28;20033;-41
2022/11/15 18:06:54;;;;;;;5.20;2.72;;;;;;;;;;5078541;28;20028;-43
2022/11/15 18:09:20;;;;;;;3.33;2.60;;;;;;;;;;5087378;28;20069;-41
2022/11/15 18:11:50;;;;;;;4.43;2.90;;;;;;;;;;5056328;28;20621;-41
2022/11/15 18:14:16;;;;;;;2.72;2.10;;;;;;;;;;5069811;28;20027;-41
2022/11/15 18:16:43;;;;;;;3.67;2.58;;;;;;;;;;5083885;28;20142;-41
2022/11/15 18:19:12;;;;;;;4.75;2.42;;;;;;;;;;5083275;28;20727;-41
2022/11/15 18:21:54;;;;;;;3.65;2.20;;;;;;;;;;5069865;28;20412;-41
2022/11/15 18:24:24;;;;;;;3.00;2.53;;;;;;;;;;5069938;28;20029;-41
2022/11/15 18:26:50;;;;;;;4.60;2.30;;;;;;;;;;5069357;28;20033;-41
2022/11/15 18:29:17;;;;;;;3.00;2.38;;;;;;;;;;5067898;28;20028;-41
2022/11/15 18:31:43;;;;;;;3.75;2.53;;;;;;;;;;5067813;28;20387;-41
2022/11/15 18:34:09;;;;;;;3.65;2.25;;;;;;;;;;5068171;28;20178;-41
2022/11/15 18:36:37;;;;;;;3.60;1.98;;;;;;;;;;5049828;28;20048;-41
2022/11/15 18:39:04;;;;;;;2.33;2.13;;;;;;;;;;5075938;28;20035;-41
2022/11/15 18:41:32;;;;;;;4.32;2.25;;;;;;;;;;5101598;28;20031;-41
2022/11/15 18:43:59;;;;;;;3.15;1.83;;;;;;;;;;5107743;28;20028;-41
2022/11/15 18:46:27;;;;;;;3.08;2.10;;;;;;;;;;5086936;28;20020;-41
2022/11/15 18:48:53;;;;;;;2.78;1.90;;;;;;;;;;5081693;28;20029;-42
2022/11/15 18:51:28;;;;;;;2.47;2.08;;;;;;;;;;5075238;28;20075;-42
2022/11/15 18:53:55;;;;;;;4.03;2.28;;;;;;;;;;5089911;28;20031;-42
2022/11/15 18:56:22;;;;;;;2.40;2.15;;;;;;;;;;5098537;28;20048;-42
2022/11/15 18:58:49;;;;;;;3.25;2.30;;;;;;;;;;5082920;28;20024;-42
2022/11/15 19:01:19;;;;;;;3.08;2.20;;;;;;;;;;5076579;28;20560;-42
2022/11/15 19:03:46;;;;;;;3.65;2.72;;;;;;;;;;5053365;28;20070;-42
2022/11/15 19:06:16;;;;;;;3.88;2.20;;;;;;;;;;5076061;28;20028;-42
2022/11/15 19:08:44;;;;;;;3.15;2.30;;;;;;;;;;5079191;28;20110;-42
2022/11/15 19:11:14;;;;;;;4.03;2.53;;;;;;;;;;5073206;28;20060;-42
2022/11/15 19:13:41;;;;;;;5.97;2.78;;;;;;;;;;5077595;28;20031;-42
2022/11/15 19:16:07;;;;;;;5.53;3.20;;;;;;;;;;5079759;28;20096;-42
2022/11/15 19:18:33;;;;;;;3.10;2.42;;;;;;;;;;5080760;28;20032;-42
2022/11/15 19:21:04;;;;;;;4.10;2.80;;;;;;;;;;5074744;28;20024;-42
2022/11/15 19:23:34;;;;;;;3.25;2.40;;;;;;;;;;5072350;28;20033;-41
2022/11/15 19:26:01;;;;;;;3.15;2.38;;;;;;;;;;5069204;28;20031;-41
2022/11/15 19:28:27;;;;;;;3.60;2.60;;;;;;;;;;5074881;28;20028;-41
2022/11/15 19:30:54;;;;;;;4.38;2.60;;;;;;;;;;5078773;28;20384;-41
2022/11/15 19:33:20;;;;;;;4.07;3.60;;;;;;;;;;5068650;28;20024;-41
2022/11/15 19:35:47;;;;;;;4.05;3.45;;;;;;;;;;5073466;28;20361;-41
2022/11/15 19:38:13;;;;;;;4.57;3.50;;;;;;;;;;5059362;28;20075;-41
2022/11/15 19:40:39;;;;;;;3.72;3.40;;;;;;;;;;5056913;28;20640;-41
2022/11/15 19:43:05;;;;;;;4.60;2.85;;;;;;;;;;5076783;28;20036;-41
2022/11/15 19:45:31;;;;;;;4.97;3.35;;;;;;;;;;5077921;28;20078;-41
2022/11/15 19:47:58;;;;;;;7.05;2.97;;;;;;;;;;5067420;28;20060;-41
2022/11/15 19:50:24;;;;;;;4.13;2.80;;;;;;;;;;5083033;28;20028;-42
2022/11/15 19:52:50;;;;;;;3.88;2.50;;;;;;;;;;5076481;28;20097;-41
2022/11/15 19:55:16;;;;;;;2.88;2.47;;;;;;;;;;5081088;28;20472;-41
2022/11/15 19:57:43;;;;;;;5.90;3.58;;;;;;;;;;5076280;28;20024;-41
2022/11/15 20:00:09;;;;;;;6.43;4.72;;;;;;;;;;5076171;28;20033;-41
2022/11/15 20:02:35;;;;;;;6.80;4.25;;;;;;;;;;5066008;28;20036;-42
2022/11/15 20:05:01;;;;;;;4.88;4.13;;;;;;;;;;5069804;28;20024;-41